createdAt,value
2023-03-17T00:00:37.784Z,2.05
2023-03-17T00:03:05.460Z,1.60
2023-03-17T00:05:35.606Z,2.65
2023-03-17T00:08:10.580Z,1.88
2023-03-17T00:10:37.637Z,2.13
2023-03-17T00:13:04.058Z,1.88
2023-03-17T00:15:30.654Z,2.03
2023-03-17T00:17:58.192Z,2.00
2023-03-17T00:20:27.892Z,2.05
2023-03-17T00:22:57.368Z,1.83
2023-03-17T00:25:29.848Z,1.55
2023-03-17T00:27:58.251Z,2.08
2023-03-17T00:30:25.472Z,2.20
2023-03-17T00:32:54.380Z,2.35
2023-03-17T00:35:23.597Z,2.88
2023-03-17T00:37:52.472Z,2.47
2023-03-17T00:40:31.206Z,1.98
2023-03-17T00:43:00.068Z,2.10
2023-03-17T00:45:27.111Z,2.30
2023-03-17T00:47:56.038Z,1.60
2023-03-17T00:50:25.372Z,2.00
2023-03-17T00:52:54.316Z,2.05
2023-03-17T00:55:21.434Z,1.75
2023-03-17T00:57:49.092Z,2.35
2023-03-17T01:00:30.277Z,2.05
2023-03-17T01:02:57.454Z,1.70
2023-03-17T01:05:26.153Z,2.13
2023-03-17T01:07:57.194Z,1.73
2023-03-17T01:10:26.398Z,2.47
2023-03-17T01:12:55.428Z,2.15
2023-03-17T01:15:22.930Z,2.17
2023-03-17T01:17:50.652Z,2.50
2023-03-17T01:20:27.574Z,2.40
2023-03-17T01:22:55.159Z,1.95
2023-03-17T01:25:22.032Z,2.15
2023-03-17T01:27:49.108Z,2.22
2023-03-17T01:30:35.672Z,2.45
2023-03-17T01:33:02.220Z,2.08
2023-03-17T01:35:32.310Z,2.03
2023-03-17T01:37:59.383Z,1.95
2023-03-17T01:40:29.363Z,1.80
2023-03-17T01:43:11.059Z,1.83
2023-03-17T01:46:15.199Z,1.70
2023-03-17T01:49:04.543Z,2.05
2023-03-17T01:51:53.528Z,2.05
2023-03-17T01:54:34.611Z,1.45
2023-03-17T01:57:13.541Z,2.53
2023-03-17T01:59:46.053Z,1.80
2023-03-17T02:02:17.901Z,1.88
2023-03-17T02:04:44.333Z,2.20
2023-03-17T02:07:12.429Z,1.67
2023-03-17T02:09:38.963Z,2.03
2023-03-17T02:12:07.702Z,2.10
2023-03-17T02:14:34.140Z,2.10
2023-03-17T02:17:00.745Z,2.28
2023-03-17T02:19:27.214Z,1.83
2023-03-17T02:21:58.841Z,2.30
2023-03-17T02:24:33.464Z,1.95
2023-03-17T02:27:17.657Z,2.20
2023-03-17T02:29:46.267Z,2.70
2023-03-17T02:32:15.118Z,1.58
2023-03-17T02:34:41.517Z,1.88
2023-03-17T02:37:08.374Z,1.90
2023-03-17T02:39:35.369Z,1.73
2023-03-17T02:42:01.944Z,2.03
2023-03-17T02:44:28.313Z,1.20
2023-03-17T02:46:54.771Z,1.75
2023-03-17T02:49:22.020Z,1.48
2023-03-17T02:51:48.467Z,1.58
2023-03-17T02:54:15.063Z,1.63
2023-03-17T02:56:41.908Z,1.77
2023-03-17T02:59:08.674Z,2.00
2023-03-17T03:01:35.345Z,1.33
2023-03-17T03:04:02.492Z,1.48
2023-03-17T03:06:28.893Z,1.90
2023-03-17T03:08:55.392Z,1.50
2023-03-17T03:11:21.837Z,1.70
2023-03-17T03:13:48.212Z,1.30
2023-03-17T03:16:15.358Z,1.50
2023-03-17T03:18:41.769Z,2.08
2023-03-17T03:21:08.234Z,1.80
2023-03-17T03:23:34.654Z,1.92
2023-03-17T03:26:01.059Z,1.67
2023-03-17T03:28:27.596Z,1.85
2023-03-17T03:30:54.051Z,1.70
2023-03-17T03:33:20.789Z,1.77
2023-03-17T03:35:47.180Z,1.85
2023-03-17T03:38:13.872Z,1.80
2023-03-17T03:40:40.381Z,1.20
2023-03-17T03:43:22.074Z,1.33
2023-03-17T03:45:50.318Z,1.58
2023-03-17T03:48:16.797Z,1.42
2023-03-17T03:50:43.200Z,1.88
2023-03-17T03:53:09.892Z,1.30
2023-03-17T03:55:36.414Z,1.80
2023-03-17T03:58:02.918Z,1.52
2023-03-17T04:00:29.697Z,1.92
2023-03-17T04:02:56.321Z,2.03
2023-03-17T04:05:23.064Z,1.40
2023-03-17T04:07:49.761Z,1.45
2023-03-17T04:10:16.849Z,1.77
2023-03-17T04:12:43.580Z,1.45
2023-03-17T04:15:13.818Z,1.27
2023-03-17T04:17:41.109Z,1.73
2023-03-17T04:20:08.211Z,1.48
2023-03-17T04:22:34.825Z,1.23
2023-03-17T04:25:01.469Z,1.52
2023-03-17T04:27:28.315Z,1.40
2023-03-17T04:29:54.773Z,1.52
2023-03-17T04:32:21.894Z,1.17
2023-03-17T04:34:48.270Z,1.20
2023-03-17T04:37:14.746Z,1.50
2023-03-17T04:39:42.011Z,1.10
2023-03-17T04:42:08.482Z,1.55
2023-03-17T04:44:35.027Z,1.65
2023-03-17T04:47:01.418Z,1.70
2023-03-17T04:49:28.737Z,1.73
2023-03-17T04:51:55.576Z,1.58
2023-03-17T04:54:21.971Z,1.80
2023-03-17T04:56:48.364Z,1.40
2023-03-17T04:59:16.051Z,1.85
2023-03-17T05:01:42.617Z,1.65
2023-03-17T05:04:11.141Z,2.13
2023-03-17T05:06:39.472Z,1.50
2023-03-17T05:09:05.988Z,1.83
2023-03-17T05:11:32.403Z,1.70
2023-03-17T05:13:58.882Z,1.63
2023-03-17T05:16:25.389Z,1.42
2023-03-17T05:18:51.853Z,2.10
2023-03-17T05:21:18.250Z,1.77
2023-03-17T05:23:44.628Z,1.70
2023-03-17T05:26:11.040Z,1.98
2023-03-17T05:28:37.481Z,1.42
2023-03-17T05:31:04.032Z,1.38
2023-03-17T05:33:30.575Z,1.92
2023-03-17T05:35:57.352Z,2.85
2023-03-17T05:38:23.965Z,2.75
2023-03-17T05:40:51.305Z,2.05
2023-03-17T05:43:17.815Z,2.03
2023-03-17T05:45:45.059Z,1.90
2023-03-17T05:48:13.090Z,1.95
2023-03-17T05:50:39.862Z,2.22
2023-03-17T05:53:06.406Z,2.00
2023-03-17T05:55:32.817Z,1.30
2023-03-17T05:58:00.857Z,2.10
2023-03-17T06:00:29.244Z,2.40
2023-03-17T06:02:56.028Z,2.10
2023-03-17T06:05:22.936Z,2.65
2023-03-17T06:07:54.878Z,4.15
2023-03-17T06:10:22.597Z,3.38
2023-03-17T06:12:49.077Z,3.95
2023-03-17T06:15:16.949Z,3.20
2023-03-17T06:17:43.538Z,3.42
2023-03-17T06:20:11.549Z,2.90
2023-03-17T06:22:39.734Z,1.70
2023-03-17T06:25:10.137Z,1.85
2023-03-17T06:27:37.828Z,2.08
2023-03-17T06:30:08.222Z,2.45
2023-03-17T06:32:35.292Z,2.30
2023-03-17T06:35:02.700Z,2.75
2023-03-17T06:37:29.717Z,2.35
2023-03-17T06:39:56.840Z,2.13
2023-03-17T06:42:23.228Z,3.33
2023-03-17T06:44:52.454Z,2.72
2023-03-17T06:47:19.989Z,2.08
2023-03-17T06:49:46.529Z,2.80
2023-03-17T12:23:32.986Z,1.95
2023-03-17T12:26:06.083Z,1.95
2023-03-17T12:28:38.781Z,1.67
2023-03-17T12:31:09.894Z,2.00
2023-03-17T12:34:01.915Z,1.67
2023-03-17T12:36:28.579Z,1.48
2023-03-17T12:39:14.436Z,1.70
2023-03-17T12:42:06.600Z,2.28
2023-03-17T12:44:51.838Z,1.63
2023-03-17T12:47:30.593Z,1.75
2023-03-17T12:50:28.406Z,1.65
2023-03-17T12:53:07.015Z,2.00
2023-03-17T12:55:36.123Z,1.88
2023-03-17T12:58:07.794Z,1.52
2023-03-17T13:00:50.602Z,1.50
2023-03-17T13:03:32.927Z,1.58
2023-03-17T13:06:07.486Z,1.83
2023-03-17T13:08:41.235Z,2.00
2023-03-17T13:11:26.133Z,1.52
2023-03-17T13:14:05.839Z,2.35
2023-03-17T13:16:33.846Z,1.80
2023-03-17T13:19:13.870Z,1.65
2023-03-17T13:21:45.598Z,1.75
2023-03-17T13:24:18.546Z,1.08
2023-03-17T13:27:01.807Z,1.48
2023-03-17T13:29:48.630Z,2.30
2023-03-17T13:32:24.673Z,1.65
2023-03-17T13:34:54.038Z,1.55
2023-03-17T13:37:40.337Z,2.10
2023-03-17T13:40:10.248Z,1.33
2023-03-17T13:42:37.194Z,2.17
2023-03-17T13:45:23.967Z,1.60
2023-03-17T13:47:52.330Z,2.08
2023-03-17T13:50:25.443Z,1.63
2023-03-17T13:55:25.839Z,1.95
2023-03-17T13:58:16.640Z,2.58
2023-03-17T14:00:46.779Z,2.03
2023-03-17T14:03:32.458Z,2.00
2023-03-17T14:06:02.835Z,1.33
2023-03-17T14:08:34.249Z,1.63
2023-03-17T14:11:04.808Z,1.75
2023-03-17T14:13:47.446Z,2.20
2023-03-17T14:16:24.174Z,2.15
2023-03-17T14:18:58.945Z,1.90
2023-03-17T14:21:31.063Z,1.40
2023-03-17T14:24:00.828Z,1.42
2023-03-17T14:26:29.436Z,1.73
2023-03-17T14:29:00.515Z,1.80
2023-03-17T14:31:28.713Z,1.77
2023-03-17T14:33:58.040Z,2.05
2023-03-17T14:36:26.257Z,1.60
2023-03-17T14:38:54.642Z,1.45
2023-03-17T14:41:24.105Z,1.70
2023-03-17T14:43:52.431Z,2.35
2023-03-17T14:46:23.757Z,2.00
2023-03-17T14:48:57.726Z,2.50
2023-03-17T14:51:26.513Z,1.60
2023-03-17T14:53:54.340Z,2.13
2023-03-17T14:56:27.027Z,1.80
2023-03-17T14:58:53.815Z,1.58
2023-03-17T15:01:34.468Z,2.20
2023-03-17T15:04:13.696Z,1.90
2023-03-17T15:06:57.646Z,2.45
2023-03-17T15:09:38.527Z,1.92
2023-03-17T15:12:18.169Z,2.03
2023-03-17T15:14:46.353Z,1.45
2023-03-17T15:17:20.739Z,1.83
2023-03-17T15:19:54.075Z,1.77
2023-03-17T15:22:32.505Z,1.33
2023-03-17T15:25:16.537Z,2.08
2023-03-17T15:27:44.215Z,2.08
2023-03-17T15:30:12.214Z,2.22
2023-03-17T15:32:39.504Z,1.85
2023-03-17T15:35:07.347Z,2.35
2023-03-17T15:37:34.856Z,1.73
2023-03-17T15:40:03.345Z,2.58
2023-03-17T15:42:34.150Z,2.10
2023-03-17T15:45:01.543Z,2.05
2023-03-17T15:47:30.915Z,2.17
2023-03-17T15:50:01.981Z,2.17
2023-03-17T15:52:28.794Z,2.10
2023-03-17T15:54:57.544Z,2.15
2023-03-17T15:57:24.672Z,2.17
2023-03-17T15:59:51.804Z,2.03
2023-03-17T16:02:30.563Z,2.33
2023-03-17T16:04:58.402Z,1.77
2023-03-17T16:07:25.361Z,1.98
2023-03-17T16:09:51.929Z,2.03
2023-03-17T16:12:18.562Z,2.42
2023-03-17T16:14:45.621Z,2.10
2023-03-17T16:17:21.945Z,1.65
2023-03-17T16:19:48.750Z,1.80
2023-03-17T16:22:28.858Z,2.38
2023-03-17T16:24:55.394Z,2.30
2023-03-17T16:27:21.798Z,2.88
2023-03-17T16:29:48.351Z,2.25
2023-03-17T16:32:14.788Z,2.33
2023-03-17T16:34:41.267Z,1.85
2023-03-17T16:37:15.163Z,2.63
2023-03-17T16:39:42.169Z,2.63
2023-03-17T16:42:24.174Z,1.92
2023-03-17T16:44:50.805Z,1.60
2023-03-17T16:47:17.369Z,2.25
2023-03-17T16:49:43.796Z,2.15
2023-03-17T16:52:12.019Z,2.90
2023-03-17T16:54:38.503Z,3.40
2023-03-17T16:57:07.715Z,2.78
2023-03-17T16:59:34.506Z,2.75
2023-03-17T17:02:01.632Z,2.97
2023-03-17T17:04:28.087Z,3.20
2023-03-17T17:06:56.452Z,3.35
2023-03-17T17:09:23.015Z,13.68
2023-03-17T17:11:49.438Z,10.20
2023-03-17T17:14:15.831Z,9.50
2023-03-17T17:16:42.479Z,9.02
2023-03-17T17:19:18.048Z,10.90
2023-03-17T17:21:44.775Z,6.47
2023-03-17T17:24:13.076Z,4.57
2023-03-17T17:26:39.767Z,3.25
2023-03-17T17:29:06.528Z,2.70
2023-03-17T17:31:33.221Z,3.08
2023-03-17T17:33:59.794Z,2.80
2023-03-17T17:36:26.704Z,1.88
2023-03-17T17:38:53.153Z,2.90
2023-03-17T17:41:21.577Z,2.17
2023-03-17T17:43:48.583Z,2.78
2023-03-17T17:46:18.383Z,2.85
2023-03-17T17:48:45.424Z,3.65
2023-03-17T17:51:12.133Z,3.00
2023-03-17T17:53:38.571Z,1.98
2023-03-17T17:56:05.478Z,2.63
2023-03-17T17:58:32.079Z,3.28
2023-03-17T18:00:58.764Z,2.67
2023-03-17T18:03:26.463Z,3.45
2023-03-17T18:05:54.774Z,2.97
2023-03-17T18:08:21.607Z,2.28
2023-03-17T18:10:50.185Z,3.88
2023-03-17T18:13:17.902Z,2.95
2023-03-17T18:15:44.426Z,3.10
2023-03-17T18:18:10.915Z,2.60
2023-03-17T18:20:38.453Z,3.70
2023-03-17T18:23:04.904Z,3.45
2023-03-17T18:25:31.378Z,3.88
2023-03-17T18:27:58.462Z,3.72
2023-03-17T18:30:27.768Z,3.22
2023-03-17T18:33:02.748Z,3.00
2023-03-17T18:35:29.746Z,3.55
2023-03-17T18:37:57.653Z,2.53
2023-03-17T18:40:25.924Z,2.22
2023-03-17T18:42:52.702Z,2.47
2023-03-17T18:45:19.275Z,3.20
2023-03-17T18:47:45.911Z,2.67
2023-03-17T18:50:14.485Z,3.10
2023-03-17T18:52:42.176Z,3.38
2023-03-17T18:55:11.126Z,2.95
2023-03-17T18:57:37.872Z,3.22
2023-03-17T19:00:06.398Z,2.78
2023-03-17T19:02:33.283Z,2.63
2023-03-17T19:04:59.814Z,2.97
2023-03-17T19:07:26.567Z,3.10
2023-03-17T19:09:53.164Z,3.35
2023-03-17T19:12:19.650Z,2.90
2023-03-17T19:14:46.126Z,3.55
2023-03-17T19:17:12.966Z,3.50
2023-03-17T19:19:41.300Z,2.42
2023-03-17T19:22:07.866Z,1.80
2023-03-17T19:24:36.048Z,3.00
2023-03-17T19:27:02.613Z,2.78
2023-03-17T19:29:29.034Z,3.75
2023-03-17T19:31:55.482Z,3.53
2023-03-17T19:34:23.002Z,3.75
2023-03-17T19:36:49.482Z,3.65
2023-03-17T19:39:16.522Z,4.93
2023-03-17T19:41:43.414Z,5.15
2023-03-17T19:44:09.915Z,3.78
2023-03-17T19:46:37.445Z,3.20
2023-03-17T19:49:04.833Z,3.03
2023-03-17T19:51:32.857Z,2.50
2023-03-17T19:53:59.624Z,3.28
2023-03-17T19:56:27.793Z,2.90
2023-03-17T19:58:54.614Z,3.20
2023-03-17T20:01:22.142Z,3.40
2023-03-17T20:03:48.844Z,3.78
2023-03-17T20:06:15.787Z,2.92
2023-03-17T20:08:43.229Z,2.47
2023-03-17T20:11:11.516Z,3.05
2023-03-17T20:13:38.546Z,3.28
2023-03-17T20:16:06.504Z,3.88
2023-03-17T20:18:33.522Z,3.88
2023-03-17T20:21:01.536Z,3.05
2023-03-17T20:23:28.023Z,3.20
2023-03-17T20:25:54.586Z,3.22
2023-03-17T20:28:21.684Z,3.78
2023-03-17T20:30:49.316Z,3.22
2023-03-17T20:33:16.702Z,3.22
2023-03-17T20:35:46.750Z,2.80
2023-03-17T20:38:14.606Z,5.00
2023-03-17T20:40:41.805Z,3.47
2023-03-17T20:43:08.472Z,3.05
2023-03-17T20:45:35.045Z,3.25
2023-03-17T20:48:02.001Z,3.58
2023-03-17T20:50:31.096Z,2.70
2023-03-17T20:52:57.954Z,3.28
2023-03-17T20:55:25.445Z,2.35
2023-03-17T20:57:52.770Z,3.33
2023-03-17T21:00:21.234Z,3.40
2023-03-17T21:02:50.206Z,3.00
2023-03-17T21:05:20.158Z,3.20
2023-03-17T21:07:47.913Z,3.70
2023-03-17T21:10:15.636Z,2.85
2023-03-17T21:12:42.463Z,3.70
2023-03-17T21:15:10.198Z,3.03
2023-03-17T21:17:38.640Z,2.92
2023-03-17T21:20:07.017Z,3.10
2023-03-17T21:22:36.153Z,3.03
2023-03-17T21:25:04.245Z,3.05
2023-03-17T21:27:31.129Z,2.83
2023-03-17T21:29:57.575Z,2.25
2023-03-17T21:32:24.259Z,3.22
2023-03-17T21:34:50.756Z,2.72
2023-03-17T21:37:18.210Z,3.20
2023-03-17T21:39:45.799Z,2.67
2023-03-17T21:42:12.298Z,2.65
2023-03-17T21:44:40.695Z,3.13
2023-03-17T21:47:07.634Z,3.60
2023-03-17T21:49:34.167Z,3.22
2023-03-17T21:52:01.167Z,3.05
2023-03-17T21:54:28.364Z,2.97
2023-03-17T21:56:54.756Z,2.55
2023-03-17T21:59:21.173Z,3.08
2023-03-17T22:01:48.357Z,3.55
2023-03-17T22:04:15.518Z,2.78
2023-03-17T22:06:42.024Z,3.10
2023-03-17T22:09:10.874Z,2.63
2023-03-17T22:11:37.782Z,3.15
2023-03-17T22:14:04.267Z,3.03
2023-03-17T22:16:30.973Z,3.58
2023-03-17T22:18:57.766Z,4.13
2023-03-17T22:21:24.990Z,3.22
2023-03-17T22:23:51.769Z,3.15
2023-03-17T22:26:20.521Z,3.05
2023-03-17T22:28:49.383Z,2.60
2023-03-17T22:31:18.215Z,3.80
2023-03-17T22:33:45.360Z,3.88
2023-03-17T22:36:12.425Z,2.85
2023-03-17T22:38:39.190Z,3.25
2023-03-17T22:41:08.113Z,3.10
2023-03-17T22:43:35.388Z,3.47
2023-03-17T22:46:01.860Z,2.72
2023-03-17T22:48:28.278Z,3.28
2023-03-17T22:50:54.700Z,3.35
2023-03-17T22:53:21.103Z,2.63
2023-03-17T22:55:47.554Z,3.58
2023-03-17T22:58:13.937Z,3.42
2023-03-17T23:00:40.478Z,3.30
2023-03-17T23:03:07.199Z,2.20
2023-03-17T23:05:33.692Z,2.75
2023-03-17T23:08:00.707Z,2.78
2023-03-17T23:10:28.425Z,3.97
2023-03-17T23:12:55.418Z,3.42
2023-03-17T23:15:22.105Z,2.05
2023-03-17T23:17:48.721Z,3.40
2023-03-17T23:20:15.728Z,3.30
2023-03-17T23:22:42.655Z,2.95
2023-03-17T23:25:09.754Z,2.28
2023-03-17T23:27:36.691Z,3.30
2023-03-17T23:30:04.222Z,2.55
2023-03-17T23:32:31.808Z,2.45
2023-03-17T23:34:58.313Z,3.42
2023-03-17T23:37:24.808Z,3.22
2023-03-17T23:39:51.217Z,2.83
2023-03-17T23:42:18.067Z,2.75
2023-03-17T23:44:45.078Z,3.42
2023-03-17T23:47:11.851Z,2.50
2023-03-17T23:49:38.819Z,3.58
2023-03-17T23:52:05.405Z,2.58
2023-03-17T23:54:32.035Z,3.33
2023-03-17T23:56:58.540Z,2.55
2023-03-17T23:59:25.264Z,2.20
